sensor_id;sensor_type;location;lat;lon;timestamp;pressure;altitude;pressure_sealevel;temperature;humidity
53262;BME280;39658;51.090;-1.786;2023-11-21T00:00:32;101182.31;;;8.09;100.00
53262;BME280;39658;51.090;-1.786;2023-11-21T00:02:59;101188.28;;;7.94;100.00
53262;BME280;39658;51.090;-1.786;2023-11-21T00:05:25;101193.13;;;7.84;100.00
53262;BME280;39658;51.090;-1.786;2023-11-21T00:07:52;101196.97;;;7.77;100.00
53262;BME280;39658;51.090;-1.786;2023-11-21T00:10:20;101204.28;;;7.70;100.00
53262;BME280;39658;51.090;-1.786;2023-11-21T00:12:47;101206.13;;;7.68;100.00
53262;BME280;39658;51.090;-1.786;2023-11-21T00:15:14;101212.91;;;7.72;100.00
53262;BME280;39658;51.090;-1.786;2023-11-21T00:17:41;101201.22;;;7.79;100.00
53262;BME280;39658;51.090;-1.786;2023-11-21T00:20:08;101202.59;;;7.88;100.00
53262;BME280;39658;51.090;-1.786;2023-11-21T00:22:38;101214.47;;;7.95;100.00
53262;BME280;39658;51.090;-1.786;2023-11-21T00:25:06;101212.50;;;8.00;100.00
53262;BME280;39658;51.090;-1.786;2023-11-21T00:27:35;101219.38;;;8.03;100.00
53262;BME280;39658;51.090;-1.786;2023-11-21T00:30:03;101218.53;;;8.02;100.00
53262;BME280;39658;51.090;-1.786;2023-11-21T00:32:31;101214.41;;;7.97;100.00
53262;BME280;39658;51.090;-1.786;2023-11-21T00:34:58;101216.41;;;7.91;100.00
53262;BME280;39658;51.090;-1.786;2023-11-21T00:37:25;101214.06;;;7.85;100.00
53262;BME280;39658;51.090;-1.786;2023-11-21T00:39:52;101216.97;;;7.79;100.00
53262;BME280;39658;51.090;-1.786;2023-11-21T00:42:19;101221.25;;;7.82;100.00
53262;BME280;39658;51.090;-1.786;2023-11-21T00:44:48;101224.28;;;7.72;100.00
53262;BME280;39658;51.090;-1.786;2023-11-21T00:47:15;101229.44;;;7.55;100.00
53262;BME280;39658;51.090;-1.786;2023-11-21T00:49:42;101234.84;;;7.52;100.00
53262;BME280;39658;51.090;-1.786;2023-11-21T00:52:08;101241.09;;;7.49;100.00
53262;BME280;39658;51.090;-1.786;2023-11-21T00:54:35;101247.81;;;7.55;100.00
53262;BME280;39658;51.090;-1.786;2023-11-21T00:57:02;101241.50;;;7.59;100.00
53262;BME280;39658;51.090;-1.786;2023-11-21T00:59:29;101249.38;;;7.59;100.00
53262;BME280;39658;51.090;-1.786;2023-11-21T01:01:57;101243.03;;;7.65;100.00
53262;BME280;39658;51.090;-1.786;2023-11-21T01:04:25;101250.41;;;7.76;100.00
53262;BME280;39658;51.090;-1.786;2023-11-21T01:06:52;101252.69;;;7.83;100.00
53262;BME280;39658;51.090;-1.786;2023-11-21T01:09:19;101251.59;;;7.87;100.00
53262;BME280;39658;51.090;-1.786;2023-11-21T01:11:46;101267.72;;;7.99;100.00
53262;BME280;39658;51.090;-1.786;2023-11-21T01:14:12;101274.50;;;8.03;100.00
53262;BME280;39658;51.090;-1.786;2023-11-21T01:16:39;101272.63;;;8.06;100.00
53262;BME280;39658;51.090;-1.786;2023-11-21T01:19:07;101277.59;;;8.13;100.00
53262;BME280;39658;51.090;-1.786;2023-11-21T01:21:34;101293.50;;;8.09;100.00
53262;BME280;39658;51.090;-1.786;2023-11-21T01:24:01;101298.75;;;8.09;100.00
53262;BME280;39658;51.090;-1.786;2023-11-21T01:26:28;101305.59;;;8.12;100.00
53262;BME280;39658;51.090;-1.786;2023-11-21T01:28:55;101303.78;;;8.14;100.00
53262;BME280;39658;51.090;-1.786;2023-11-21T01:31:22;101312.44;;;8.16;100.00
53262;BME280;39658;51.090;-1.786;2023-11-21T01:33:49;101313.13;;;8.20;100.00
53262;BME280;39658;51.090;-1.786;2023-11-21T01:36:17;101311.16;;;8.25;100.00
53262;BME280;39658;51.090;-1.786;2023-11-21T01:38:44;101315.47;;;8.26;100.00
53262;BME280;39658;51.090;-1.786;2023-11-21T01:41:11;101323.28;;;8.27;100.00
53262;BME280;39658;51.090;-1.786;2023-11-21T01:43:38;101332.81;;;8.30;100.00
53262;BME280;39658;51.090;-1.786;2023-11-21T01:46:05;101344.22;;;8.29;100.00
53262;BME280;39658;51.090;-1.786;2023-11-21T01:48:32;101346.00;;;8.29;100.00
53262;BME280;39658;51.090;-1.786;2023-11-21T01:51:00;101365.19;;;8.31;100.00
53262;BME280;39658;51.090;-1.786;2023-11-21T01:53:29;101371.28;;;8.31;100.00
53262;BME280;39658;51.090;-1.786;2023-11-21T01:55:56;101377.34;;;8.33;100.00
53262;BME280;39658;51.090;-1.786;2023-11-21T01:58:23;101381.56;;;8.36;100.00
53262;BME280;39658;51.090;-1.786;2023-11-21T02:00:50;101390.19;;;8.39;100.00
53262;BME280;39658;51.090;-1.786;2023-11-21T02:03:18;101395.44;;;8.39;100.00
53262;BME280;39658;51.090;-1.786;2023-11-21T02:05:45;101398.97;;;8.38;100.00
53262;BME280;39658;51.090;-1.786;2023-11-21T02:08:11;101399.75;;;8.40;100.00
53262;BME280;39658;51.090;-1.786;2023-11-21T02:10:40;101404.94;;;8.42;100.00
53262;BME280;39658;51.090;-1.786;2023-11-21T02:13:06;101396.22;;;8.41;100.00
53262;BME280;39658;51.090;-1.786;2023-11-21T02:15:33;101406.66;;;8.43;100.00
53262;BME280;39658;51.090;-1.786;2023-11-21T02:18:00;101404.91;;;8.43;100.00
53262;BME280;39658;51.090;-1.786;2023-11-21T02:20:28;101413.59;;;8.46;100.00
53262;BME280;39658;51.090;-1.786;2023-11-21T02:22:57;101413.69;;;8.42;100.00
53262;BME280;39658;51.090;-1.786;2023-11-21T02:25:25;101425.03;;;8.43;100.00
53262;BME280;39658;51.090;-1.786;2023-11-21T02:27:53;101422.41;;;8.43;100.00
53262;BME280;39658;51.090;-1.786;2023-11-21T02:30:20;101426.03;;;8.40;100.00
53262;BME280;39658;51.090;-1.786;2023-11-21T02:32:47;101421.72;;;8.39;100.00
53262;BME280;39658;51.090;-1.786;2023-11-21T02:35:14;101432.94;;;8.43;100.00
53262;BME280;39658;51.090;-1.786;2023-11-21T02:37:41;101433.84;;;8.42;100.00
53262;BME280;39658;51.090;-1.786;2023-11-21T02:40:10;101429.41;;;8.44;100.00
53262;BME280;39658;51.090;-1.786;2023-11-21T02:42:38;101433.84;;;8.42;100.00
53262;BME280;39658;51.090;-1.786;2023-11-21T02:45:06;101424.63;;;8.33;100.00
53262;BME280;39658;51.090;-1.786;2023-11-21T02:47:33;101441.69;;;8.43;100.00
53262;BME280;39658;51.090;-1.786;2023-11-21T02:50:00;101438.16;;;8.44;100.00
53262;BME280;39658;51.090;-1.786;2023-11-21T02:52:27;101440.56;;;8.49;100.00
53262;BME280;39658;51.090;-1.786;2023-11-21T02:54:53;101438.78;;;8.50;100.00
53262;BME280;39658;51.090;-1.786;2023-11-21T02:57:21;101436.22;;;8.48;100.00
53262;BME280;39658;51.090;-1.786;2023-11-21T02:59:48;101431.03;;;8.47;100.00
53262;BME280;39658;51.090;-1.786;2023-11-21T03:02:15;101432.91;;;8.44;100.00
53262;BME280;39658;51.090;-1.786;2023-11-21T03:04:42;101430.13;;;8.48;100.00
53262;BME280;39658;51.090;-1.786;2023-11-21T03:07:09;101431.97;;;8.46;100.00
53262;BME280;39658;51.090;-1.786;2023-11-21T03:09:36;101427.63;;;8.44;100.00
53262;BME280;39658;51.090;-1.786;2023-11-21T03:12:03;101428.34;;;8.48;100.00
53262;BME280;39658;51.090;-1.786;2023-11-21T03:14:32;101426.44;;;8.52;100.00
53262;BME280;39658;51.090;-1.786;2023-11-21T03:16:58;101431.69;;;8.52;100.00
53262;BME280;39658;51.090;-1.786;2023-11-21T03:19:25;101442.44;;;8.47;100.00
53262;BME280;39658;51.090;-1.786;2023-11-21T03:21:52;101431.91;;;8.47;100.00
53262;BME280;39658;51.090;-1.786;2023-11-21T03:24:19;101436.16;;;8.50;100.00
53262;BME280;39658;51.090;-1.786;2023-11-21T03:26:47;101447.53;;;8.50;100.00
53262;BME280;39658;51.090;-1.786;2023-11-21T03:29:14;101452.78;;;8.50;100.00
53262;BME280;39658;51.090;-1.786;2023-11-21T03:31:42;101452.59;;;8.55;100.00
53262;BME280;39658;51.090;-1.786;2023-11-21T03:34:15;101455.28;;;8.53;100.00
53262;BME280;39658;51.090;-1.786;2023-11-21T03:36:43;101459.47;;;8.57;100.00
53262;BME280;39658;51.090;-1.786;2023-11-21T03:39:09;101460.19;;;8.61;100.00
53262;BME280;39658;51.090;-1.786;2023-11-21T03:41:36;101468.16;;;8.59;100.00
53262;BME280;39658;51.090;-1.786;2023-11-21T03:44:03;101469.91;;;8.59;100.00
53262;BME280;39658;51.090;-1.786;2023-11-21T03:46:30;101472.66;;;8.56;100.00
53262;BME280;39658;51.090;-1.786;2023-11-21T03:48:58;101468.28;;;8.56;100.00
53262;BME280;39658;51.090;-1.786;2023-11-21T03:51:25;101479.66;;;8.57;100.00
53262;BME280;39658;51.090;-1.786;2023-11-21T03:53:51;101475.16;;;8.59;100.00
53262;BME280;39658;51.090;-1.786;2023-11-21T03:56:19;101470.72;;;8.61;100.00
53262;BME280;39658;51.090;-1.786;2023-11-21T03:58:47;101476.94;;;8.58;100.00
53262;BME280;39658;51.090;-1.786;2023-11-21T04:01:20;101476.94;;;8.58;100.00
53262;BME280;39658;51.090;-1.786;2023-11-21T04:03:48;101476.09;;;8.58;100.00
53262;BME280;39658;51.090;-1.786;2023-11-21T04:06:16;101485.75;;;8.57;100.00
53262;BME280;39658;51.090;-1.786;2023-11-21T04:08:43;101489.25;;;8.58;100.00
53262;BME280;39658;51.090;-1.786;2023-11-21T04:11:10;101489.38;;;8.55;100.00
53262;BME280;39658;51.090;-1.786;2023-11-21T04:13:38;101481.44;;;8.56;100.00
53262;BME280;39658;51.090;-1.786;2023-11-21T04:16:05;101478.72;;;8.58;100.00
53262;BME280;39658;51.090;-1.786;2023-11-21T04:18:33;101483.19;;;8.56;100.00
53262;BME280;39658;51.090;-1.786;2023-11-21T04:21:00;101485.09;;;8.52;100.00
53262;BME280;39658;51.090;-1.786;2023-11-21T04:23:29;101486.16;;;8.48;100.00
53262;BME280;39658;51.090;-1.786;2023-11-21T04:25:55;101498.38;;;8.49;100.00
53262;BME280;39658;51.090;-1.786;2023-11-21T04:28:22;101494.56;;;8.56;100.00
53262;BME280;39658;51.090;-1.786;2023-11-21T04:30:49;101490.22;;;8.55;100.00
53262;BME280;39658;51.090;-1.786;2023-11-21T04:33:16;101484.00;;;8.58;100.00
53262;BME280;39658;51.090;-1.786;2023-11-21T04:35:43;101491.00;;;8.57;100.00
53262;BME280;39658;51.090;-1.786;2023-11-21T04:38:10;101491.00;;;8.57;100.00
53262;BME280;39658;51.090;-1.786;2023-11-21T04:40:38;101490.03;;;8.60;100.00
53262;BME280;39658;51.090;-1.786;2023-11-21T04:43:05;101496.84;;;8.64;100.00
53262;BME280;39658;51.090;-1.786;2023-11-21T04:45:32;101507.22;;;8.67;100.00
53262;BME280;39658;51.090;-1.786;2023-11-21T04:47:59;101497.63;;;8.66;100.00
53262;BME280;39658;51.090;-1.786;2023-11-21T04:50:25;101501.91;;;8.69;100.00
53262;BME280;39658;51.090;-1.786;2023-11-21T04:52:53;101513.25;;;8.69;100.00
53262;BME280;39658;51.090;-1.786;2023-11-21T04:55:20;101507.09;;;8.70;100.00
53262;BME280;39658;51.090;-1.786;2023-11-21T04:57:48;101514.09;;;8.70;100.00
53262;BME280;39658;51.090;-1.786;2023-11-21T05:00:15;101526.53;;;8.66;100.00
53262;BME280;39658;51.090;-1.786;2023-11-21T05:02:42;101533.72;;;8.62;100.00
53262;BME280;39658;51.090;-1.786;2023-11-21T05:05:09;101541.47;;;8.66;100.00
53262;BME280;39658;51.090;-1.786;2023-11-21T05:07:36;101544.94;;;8.66;100.00
53262;BME280;39658;51.090;-1.786;2023-11-21T05:10:04;101551.84;;;8.69;100.00
53262;BME280;39658;51.090;-1.786;2023-11-21T05:12:34;101555.47;;;8.66;100.00
53262;BME280;39658;51.090;-1.786;2023-11-21T05:15:04;101558.88;;;8.68;100.00
53262;BME280;39658;51.090;-1.786;2023-11-21T05:17:35;101562.50;;;8.66;100.00
53262;BME280;39658;51.090;-1.786;2023-11-21T05:20:02;101567.63;;;8.69;100.00
53262;BME280;39658;51.090;-1.786;2023-11-21T05:22:33;101575.72;;;8.64;100.00
53262;BME280;39658;51.090;-1.786;2023-11-21T05:25:00;101583.75;;;8.61;100.00
53262;BME280;39658;51.090;-1.786;2023-11-21T05:27:28;101580.31;;;8.59;100.00
53262;BME280;39658;51.090;-1.786;2023-11-21T05:29:55;101590.09;;;8.55;100.00
53262;BME280;39658;51.090;-1.786;2023-11-21T05:34:50;101597.72;;;8.61;100.00
53262;BME280;39658;51.090;-1.786;2023-11-21T05:37:16;101597.78;;;8.60;100.00
53262;BME280;39658;51.090;-1.786;2023-11-21T05:39:43;101593.66;;;8.54;100.00
53262;BME280;39658;51.090;-1.786;2023-11-21T05:42:10;101598.06;;;8.54;100.00
53262;BME280;39658;51.090;-1.786;2023-11-21T05:44:37;101596.41;;;8.51;100.00
53262;BME280;39658;51.090;-1.786;2023-11-21T05:47:04;101601.72;;;8.50;100.00
53262;BME280;39658;51.090;-1.786;2023-11-21T05:49:34;101611.34;;;8.51;100.00
53262;BME280;39658;51.090;-1.786;2023-11-21T05:52:00;101617.09;;;8.59;100.00
53262;BME280;39658;51.090;-1.786;2023-11-21T05:54:27;101625.13;;;8.56;100.00
53262;BME280;39658;51.090;-1.786;2023-11-21T05:56:54;101636.38;;;8.59;100.00
53262;BME280;39658;51.090;-1.786;2023-11-21T05:59:21;101625.78;;;8.61;100.00
53262;BME280;39658;51.090;-1.786;2023-11-21T06:01:47;101625.06;;;8.57;100.00
53262;BME280;39658;51.090;-1.786;2023-11-21T06:04:14;101627.69;;;8.57;100.00
53262;BME280;39658;51.090;-1.786;2023-11-21T06:06:42;101640.88;;;8.56;100.00
53262;BME280;39658;51.090;-1.786;2023-11-21T06:09:09;101636.78;;;8.50;100.00
53262;BME280;39658;51.090;-1.786;2023-11-21T06:11:37;101645.56;;;8.49;100.00
53262;BME280;39658;51.090;-1.786;2023-11-21T06:14:04;101652.84;;;8.42;100.00
53262;BME280;39658;51.090;-1.786;2023-11-21T06:16:33;101654.59;;;8.42;100.00
53262;BME280;39658;51.090;-1.786;2023-11-21T06:19:00;101667.84;;;8.39;100.00
53262;BME280;39658;51.090;-1.786;2023-11-21T06:21:27;101674.38;;;8.30;100.00
53262;BME280;39658;51.090;-1.786;2023-11-21T06:23:55;101662.44;;;8.21;100.00
53262;BME280;39658;51.090;-1.786;2023-11-21T06:26:22;101670.81;;;8.09;100.00
53262;BME280;39658;51.090;-1.786;2023-11-21T06:28:49;101678.09;;;8.02;100.00
53262;BME280;39658;51.090;-1.786;2023-11-21T06:31:18;101674.06;;;7.94;100.00
53262;BME280;39658;51.090;-1.786;2023-11-21T06:33:44;101683.84;;;7.90;100.00
53262;BME280;39658;51.090;-1.786;2023-11-21T06:36:12;101688.50;;;7.83;100.00
53262;BME280;39658;51.090;-1.786;2023-11-21T06:38:38;101688.50;;;7.83;100.00
53262;BME280;39658;51.090;-1.786;2023-11-21T06:41:07;101690.34;;;7.80;100.00
53262;BME280;39658;51.090;-1.786;2023-11-21T06:43:34;101692.94;;;7.81;100.00
53262;BME280;39658;51.090;-1.786;2023-11-21T06:46:01;101693.91;;;7.79;100.00
53262;BME280;39658;51.090;-1.786;2023-11-21T06:48:29;101698.34;;;7.77;100.00
53262;BME280;39658;51.090;-1.786;2023-11-21T06:50:56;101708.19;;;7.71;100.00
53262;BME280;39658;51.090;-1.786;2023-11-21T06:53:23;101717.78;;;7.72;100.00
53262;BME280;39658;51.090;-1.786;2023-11-21T06:55:50;101724.84;;;7.70;100.00
53262;BME280;39658;51.090;-1.786;2023-11-21T06:58:18;101731.03;;;7.69;100.00
53262;BME280;39658;51.090;-1.786;2023-11-21T07:00:44;101723.94;;;7.71;100.00
53262;BME280;39658;51.090;-1.786;2023-11-21T07:03:14;101727.47;;;7.70;100.00
53262;BME280;39658;51.090;-1.786;2023-11-21T07:05:40;101737.97;;;7.70;100.00
53262;BME280;39658;51.090;-1.786;2023-11-21T07:08:07;101741.53;;;7.69;100.00
53262;BME280;39658;51.090;-1.786;2023-11-21T07:10:34;101747.50;;;7.73;100.00
53262;BME280;39658;51.090;-1.786;2023-11-21T07:13:02;101740.47;;;7.73;100.00
53262;BME280;39658;51.090;-1.786;2023-11-21T07:15:30;101737.91;;;7.72;100.00
53262;BME280;39658;51.090;-1.786;2023-11-21T07:17:57;101737.19;;;7.68;100.00
53262;BME280;39658;51.090;-1.786;2023-11-21T07:20:23;101732.81;;;7.67;100.00
53262;BME280;39658;51.090;-1.786;2023-11-21T07:22:50;101729.47;;;7.64;100.00
53262;BME280;39658;51.090;-1.786;2023-11-21T07:25:17;101708.47;;;7.64;100.00
53262;BME280;39658;51.090;-1.786;2023-11-21T07:27:44;101699.81;;;7.62;100.00
53262;BME280;39658;51.090;-1.786;2023-11-21T07:30:12;101682.34;;;7.61;100.00
53262;BME280;39658;51.090;-1.786;2023-11-21T07:32:40;101663.91;;;7.62;100.00
53262;BME280;39658;51.090;-1.786;2023-11-21T07:35:08;101650.06;;;7.59;100.00
53262;BME280;39658;51.090;-1.786;2023-11-21T07:37:34;101633.56;;;7.55;100.00
53262;BME280;39658;51.090;-1.786;2023-11-21T07:40:01;101620.50;;;7.53;100.00
53262;BME280;39658;51.090;-1.786;2023-11-21T07:42:28;101618.03;;;7.50;100.00
53262;BME280;39658;51.090;-1.786;2023-11-21T07:44:55;101603.00;;;7.54;100.00
53262;BME280;39658;51.090;-1.786;2023-11-21T07:47:22;101596.03;;;7.53;100.00
53262;BME280;39658;51.090;-1.786;2023-11-21T07:49:54;101597.75;;;7.54;100.00
53262;BME280;39658;51.090;-1.786;2023-11-21T07:52:21;101592.44;;;7.55;100.00
53262;BME280;39658;51.090;-1.786;2023-11-21T07:54:48;101580.09;;;7.58;100.00
53262;BME280;39658;51.090;-1.786;2023-11-21T07:57:15;101567.06;;;7.56;100.00
53262;BME280;39658;51.090;-1.786;2023-11-21T07:59:42;101569.56;;;7.59;100.00
53262;BME280;39658;51.090;-1.786;2023-11-21T08:02:09;101562.28;;;7.66;100.00
53262;BME280;39658;51.090;-1.786;2023-11-21T08:04:35;101562.09;;;7.70;100.00
53262;BME280;39658;51.090;-1.786;2023-11-21T08:07:04;101548.13;;;7.70;100.00
53262;BME280;39658;51.090;-1.786;2023-11-21T08:09:31;101548.13;;;7.70;100.00
53262;BME280;39658;51.090;-1.786;2023-11-21T08:11:59;101547.16;;;7.72;100.00
53262;BME280;39658;51.090;-1.786;2023-11-21T08:14:27;101558.50;;;7.73;100.00
53262;BME280;39658;51.090;-1.786;2023-11-21T08:16:54;101548.00;;;7.73;100.00
53262;BME280;39658;51.090;-1.786;2023-11-21T08:19:23;101554.84;;;7.77;100.00
53262;BME280;39658;51.090;-1.786;2023-11-21T08:21:50;101561.78;;;7.78;100.00
53262;BME280;39658;51.090;-1.786;2023-11-21T08:24:21;101564.34;;;7.80;100.00
53262;BME280;39658;51.090;-1.786;2023-11-21T08:26:48;101572.03;;;7.84;100.00
53262;BME280;39658;51.090;-1.786;2023-11-21T08:29:15;101570.34;;;7.83;100.00
53262;BME280;39658;51.090;-1.786;2023-11-21T08:31:42;101575.66;;;7.82;100.00
53262;BME280;39658;51.090;-1.786;2023-11-21T08:34:10;101586.69;;;7.90;100.00
53262;BME280;39658;51.090;-1.786;2023-11-21T08:36:41;101582.22;;;7.92;100.00
53262;BME280;39658;51.090;-1.786;2023-11-21T08:39:08;101586.50;;;7.95;100.00
53262;BME280;39658;51.090;-1.786;2023-11-21T08:41:36;101583.03;;;7.94;100.00
53262;BME280;39658;51.090;-1.786;2023-11-21T08:44:03;101593.53;;;7.94;100.00
53262;BME280;39658;51.090;-1.786;2023-11-21T08:46:32;101605.53;;;8.00;100.00
53262;BME280;39658;51.090;-1.786;2023-11-21T08:49:01;101607.25;;;8.01;100.00
53262;BME280;39658;51.090;-1.786;2023-11-21T08:51:27;101606.16;;;8.06;100.00
53262;BME280;39658;51.090;-1.786;2023-11-21T08:53:54;101609.03;;;8.00;100.00
53262;BME280;39658;51.090;-1.786;2023-11-21T08:56:24;101623.78;;;8.03;100.00
53262;BME280;39658;51.090;-1.786;2023-11-21T08:58:52;101631.88;;;7.98;100.00
53262;BME280;39658;51.090;-1.786;2023-11-21T09:01:19;101633.53;;;8.01;100.00
53262;BME280;39658;51.090;-1.786;2023-11-21T09:03:46;101642.00;;;8.07;100.00
53262;BME280;39658;51.090;-1.786;2023-11-21T09:06:13;101640.38;;;8.05;100.00
53262;BME280;39658;51.090;-1.786;2023-11-21T09:08:40;101641.94;;;8.09;100.00
53262;BME280;39658;51.090;-1.786;2023-11-21T09:11:07;101650.69;;;8.09;100.00
53262;BME280;39658;51.090;-1.786;2023-11-21T09:13:34;101650.75;;;8.08;100.00
53262;BME280;39658;51.090;-1.786;2023-11-21T09:16:03;101645.44;;;8.09;100.00
53262;BME280;39658;51.090;-1.786;2023-11-21T09:18:31;101646.88;;;8.17;100.00
53262;BME280;39658;51.090;-1.786;2023-11-21T09:20:57;101646.88;;;8.17;100.00
53262;BME280;39658;51.090;-1.786;2023-11-21T09:23:24;101645.19;;;8.16;100.00
53262;BME280;39658;51.090;-1.786;2023-11-21T09:25:51;101641.69;;;8.15;100.00
53262;BME280;39658;51.090;-1.786;2023-11-21T09:28:22;101648.84;;;8.12;100.00
53262;BME280;39658;51.090;-1.786;2023-11-21T09:30:48;101648.78;;;8.13;100.00
53262;BME280;39658;51.090;-1.786;2023-11-21T09:33:17;101654.81;;;8.15;100.00
53262;BME280;39658;51.090;-1.786;2023-11-21T09:35:44;101652.50;;;8.07;100.00
53262;BME280;39658;51.090;-1.786;2023-11-21T09:38:11;101657.75;;;8.07;100.00
53262;BME280;39658;51.090;-1.786;2023-11-21T09:40:38;101668.19;;;8.09;100.00
53262;BME280;39658;51.090;-1.786;2023-11-21T09:43:06;101683.13;;;8.08;100.00
53262;BME280;39658;51.090;-1.786;2023-11-21T09:45:35;101688.31;;;8.10;100.00
53262;BME280;39658;51.090;-1.786;2023-11-21T09:48:02;101697.16;;;8.07;100.00
53262;BME280;39658;51.090;-1.786;2023-11-21T09:50:32;101707.34;;;8.15;100.00
53262;BME280;39658;51.090;-1.786;2023-11-21T09:53:09;101698.50;;;8.18;100.00
53262;BME280;39658;51.090;-1.786;2023-11-21T09:55:42;101713.38;;;8.19;100.00
53262;BME280;39658;51.090;-1.786;2023-11-21T09:58:09;101712.53;;;8.17;100.00
53262;BME280;39658;51.090;-1.786;2023-11-21T10:00:40;101723.00;;;8.18;100.00
53262;BME280;39658;51.090;-1.786;2023-11-21T10:03:07;101728.31;;;8.17;100.00
53262;BME280;39658;51.090;-1.786;2023-11-21T10:05:35;101727.66;;;8.12;100.00
53262;BME280;39658;51.090;-1.786;2023-11-21T10:08:04;101743.28;;;8.15;100.00
53262;BME280;39658;51.090;-1.786;2023-11-21T10:10:33;101753.56;;;8.21;100.00
53262;BME280;39658;51.090;-1.786;2023-11-21T10:13:02;101764.13;;;8.19;100.00
53262;BME280;39658;51.090;-1.786;2023-11-21T10:15:33;101772.78;;;8.21;100.00
53262;BME280;39658;51.090;-1.786;2023-11-21T10:18:02;101768.53;;;8.19;100.00
53262;BME280;39658;51.090;-1.786;2023-11-21T10:20:31;101791.25;;;8.20;100.00
53262;BME280;39658;51.090;-1.786;2023-11-21T10:23:00;101796.44;;;8.21;100.00
53262;BME280;39658;51.090;-1.786;2023-11-21T10:25:28;101804.25;;;8.23;100.00
53262;BME280;39658;51.090;-1.786;2023-11-21T10:27:58;101813.19;;;8.19;100.00
53262;BME280;39658;51.090;-1.786;2023-11-21T10:30:28;101825.09;;;8.27;100.00
53262;BME280;39658;51.090;-1.786;2023-11-21T10:32:59;101820.63;;;8.30;100.00
53262;BME280;39658;51.090;-1.786;2023-11-21T10:35:38;101821.16;;;8.39;100.00
53262;BME280;39658;51.090;-1.786;2023-11-21T10:38:06;101816.75;;;8.40;100.00
53262;BME280;39658;51.090;-1.786;2023-11-21T10:40:37;101813.06;;;8.46;100.00
53262;BME280;39658;51.090;-1.786;2023-11-21T10:43:07;101826.97;;;8.48;100.00
53262;BME280;39658;51.090;-1.786;2023-11-21T10:45:36;101823.25;;;8.53;100.00
53262;BME280;39658;51.090;-1.786;2023-11-21T10:48:05;101824.09;;;8.54;100.00
53262;BME280;39658;51.090;-1.786;2023-11-21T10:50:34;101824.28;;;8.49;100.00
53262;BME280;39658;51.090;-1.786;2023-11-21T10:53:02;101840.78;;;8.53;100.00
53262;BME280;39658;51.090;-1.786;2023-11-21T10:55:31;101852.31;;;8.50;100.00
53262;BME280;39658;51.090;-1.786;2023-11-21T10:57:59;101866.72;;;8.62;100.00
53262;BME280;39658;51.090;-1.786;2023-11-21T11:00:27;101869.28;;;8.63;100.00
53262;BME280;39658;51.090;-1.786;2023-11-21T11:02:55;101879.91;;;8.60;100.00
53262;BME280;39658;51.090;-1.786;2023-11-21T11:05:23;101887.75;;;8.62;100.00
53262;BME280;39658;51.090;-1.786;2023-11-21T11:07:57;101896.69;;;8.58;100.00
53262;BME280;39658;51.090;-1.786;2023-11-21T11:10:25;101899.38;;;8.56;100.00
53262;BME280;39658;51.090;-1.786;2023-11-21T11:12:55;101920.41;;;8.56;100.00
53262;BME280;39658;51.090;-1.786;2023-11-21T11:15:23;101929.94;;;8.59;100.00
53262;BME280;39658;51.090;-1.786;2023-11-21T11:17:50;101943.94;;;8.59;100.00
53262;BME280;39658;51.090;-1.786;2023-11-21T11:20:17;101949.31;;;8.56;100.00
53262;BME280;39658;51.090;-1.786;2023-11-21T11:22:53;101950.09;;;8.58;100.00
53262;BME280;39658;51.090;-1.786;2023-11-21T11:25:38;101961.47;;;8.59;100.00
53262;BME280;39658;51.090;-1.786;2023-11-21T11:28:15;101967.66;;;8.58;100.00
53262;BME280;39658;51.090;-1.786;2023-11-21T11:30:53;101967.44;;;8.64;100.00
53262;BME280;39658;51.090;-1.786;2023-11-21T11:33:33;101980.53;;;8.66;100.00
53262;BME280;39658;51.090;-1.786;2023-11-21T11:36:06;101981.19;;;8.71;100.00
53262;BME280;39658;51.090;-1.786;2023-11-21T11:38:34;101978.63;;;8.69;100.00
53262;BME280;39658;51.090;-1.786;2023-11-21T11:41:03;101984.63;;;8.73;100.00
53262;BME280;39658;51.090;-1.786;2023-11-21T11:43:32;101980.28;;;8.72;100.00
53262;BME280;39658;51.090;-1.786;2023-11-21T11:46:05;101989.94;;;8.71;100.00
53262;BME280;39658;51.090;-1.786;2023-11-21T11:48:37;102001.38;;;8.70;100.00
53262;BME280;39658;51.090;-1.786;2023-11-21T11:51:06;101999.78;;;8.66;100.00
53262;BME280;39658;51.090;-1.786;2023-11-21T11:53:39;102005.72;;;8.71;100.00
53262;BME280;39658;51.090;-1.786;2023-11-21T11:56:28;102014.13;;;8.81;100.00
53262;BME280;39658;51.090;-1.786;2023-11-21T11:58:57;102018.75;;;8.98;100.00
53262;BME280;39658;51.090;-1.786;2023-11-21T12:01:25;102025.75;;;8.97;100.00
53262;BME280;39658;51.090;-1.786;2023-11-21T12:04:26;102019.28;;;9.06;100.00
53262;BME280;39658;51.090;-1.786;2023-11-21T12:07:00;102028.16;;;9.26;100.00
53262;BME280;39658;51.090;-1.786;2023-11-21T12:09:30;102020.41;;;9.45;100.00
53262;BME280;39658;51.090;-1.786;2023-11-21T12:11:58;102020.88;;;9.55;100.00
53262;BME280;39658;51.090;-1.786;2023-11-21T12:14:26;102024.81;;;9.66;100.00
53262;BME280;39658;51.090;-1.786;2023-11-21T12:16:54;102019.72;;;9.62;100.00
53262;BME280;39658;51.090;-1.786;2023-11-21T12:19:21;102013.25;;;9.69;100.00
53262;BME280;39658;51.090;-1.786;2023-11-21T12:21:49;102001.69;;;9.73;100.00
53262;BME280;39658;51.090;-1.786;2023-11-21T12:24:16;101996.34;;;9.75;100.00
53262;BME280;39658;51.090;-1.786;2023-11-21T12:26:43;101990.97;;;9.78;100.00
53262;BME280;39658;51.090;-1.786;2023-11-21T12:29:10;101968.63;;;9.66;100.00
53262;BME280;39658;51.090;-1.786;2023-11-21T12:31:39;101972.59;;;9.76;100.00
53262;BME280;39658;51.090;-1.786;2023-11-21T12:34:06;101968.50;;;9.89;100.00
53262;BME280;39658;51.090;-1.786;2023-11-21T12:36:37;101956.38;;;10.06;100.00
53262;BME280;39658;51.090;-1.786;2023-11-21T12:39:04;101943.06;;;10.09;100.00
53262;BME280;39658;51.090;-1.786;2023-11-21T12:41:34;101943.88;;;9.91;100.00
53262;BME280;39658;51.090;-1.786;2023-11-21T12:44:00;101935.44;;;9.82;100.00
53262;BME280;39658;51.090;-1.786;2023-11-21T12:46:28;101937.13;;;9.83;100.00